Time;durP1;ratioP1;P1;durP2;ratioP2;P2;SDS_P1;SDS_P2;PMS_P1;PMS_P2;Temp;Humidity;BMP_temperature;BMP_pressure;BME280_temperature;BME280_humidity;BME280_pressure;Samples;Min_cycle;Max_cycle;Signal;HPM_P1;HPM_P2
2022/05/22 00:01:15;;;;;;;17.05;5.85;;;21.00;99.90;;;;;;5036310;28;20057;-73
2022/05/22 00:03:41;;;;;;;12.82;5.35;;;20.80;99.90;;;;;;5036193;28;20068;-73
2022/05/22 00:06:07;;;;;;;19.23;6.78;;;20.80;99.90;;;;;;5036250;28;20013;-73
2022/05/22 00:08:33;;;;;;;14.60;5.70;;;20.80;99.90;;;;;;5035926;28;20090;-73
2022/05/22 00:10:59;;;;;;;15.07;6.32;;;20.70;99.90;;;;;;5036172;28;20017;-73
2022/05/22 00:13:25;;;;;;;18.88;6.00;;;20.70;99.90;;;;;;5036159;28;20029;-73
2022/05/22 00:18:35;;;;;;;15.38;5.30;;;20.50;99.90;;;;;;5035650;28;20032;-73
2022/05/22 00:21:00;;;;;;;21.83;5.47;;;20.50;99.90;;;;;;5036286;28;20025;-73
2022/05/22 00:23:28;;;;;;;14.57;5.65;;;20.50;99.90;;;;;;5035422;28;20064;-73
2022/05/22 00:25:56;;;;;;;16.00;5.30;;;20.50;99.90;;;;;;5035812;28;20104;-73
2022/05/22 00:28:22;;;;;;;19.40;6.00;;;20.40;99.90;;;;;;5036040;28;20025;-73
2022/05/22 00:30:47;;;;;;;11.77;5.60;;;20.30;99.90;;;;;;5025693;28;20022;-73
2022/05/22 00:33:13;;;;;;;16.17;6.05;;;20.20;99.90;;;;;;5015650;28;20029;-74
2022/05/22 00:35:40;;;;;;;19.42;6.18;;;20.20;99.90;;;;;;5015968;28;20050;-73
2022/05/22 00:38:06;;;;;;;16.13;5.63;;;20.30;99.90;;;;;;5015818;28;20505;-73
2022/05/22 00:40:32;;;;;;;18.67;6.30;;;20.20;99.90;;;;;;5015754;28;20046;-73
2022/05/22 00:42:58;;;;;;;13.70;6.00;;;20.10;99.90;;;;;;5015598;28;20033;-73
2022/05/22 00:45:23;;;;;;;15.60;5.55;;;20.10;99.90;;;;;;5015712;28;20025;-73
2022/05/22 00:47:51;;;;;;;16.10;6.55;;;20.20;99.90;;;;;;5015165;28;20030;-72
2022/05/22 00:50:17;;;;;;;14.65;6.03;;;20.10;99.90;;;;;;5015291;28;20029;-73
2022/05/22 00:52:50;;;;;;;15.52;6.40;;;20.10;99.90;;;;;;5015432;28;20105;-73
2022/05/22 00:55:28;;;;;;;17.90;6.00;;;20.00;99.90;;;;;;5015934;28;20105;-73
2022/05/22 00:57:58;;;;;;;22.75;6.38;;;19.90;99.90;;;;;;5015615;28;20490;-73
2022/05/22 01:00:29;;;;;;;18.13;6.05;;;19.90;99.90;;;;;;5015374;28;20022;-73
2022/05/22 01:05:41;;;;;;;17.65;6.10;;;19.90;99.90;;;;;;5015014;28;20045;-73
2022/05/22 01:08:07;;;;;;;16.38;6.05;;;19.80;99.90;;;;;;5015240;28;20461;-73
2022/05/22 01:10:55;;;;;;;19.20;7.20;;;19.70;99.90;;;;;;5015119;28;20031;-73
2022/05/22 01:13:25;;;;;;;17.83;6.78;;;19.70;99.90;;;;;;5015043;28;20113;-73
2022/05/22 01:15:51;;;;;;;21.85;7.30;;;19.70;99.90;;;;;;5014772;28;20018;-73
2022/05/22 01:18:17;;;;;;;14.98;6.18;;;19.70;99.90;;;;;;5015180;28;20370;-73
2022/05/22 01:20:51;;;;;;;21.98;7.05;;;19.60;99.90;;;;;;5015153;28;20026;-73
2022/05/22 01:23:18;;;;;;;19.10;6.85;;;19.60;99.90;;;;;;5014687;28;20096;-73
2022/05/22 01:25:44;;;;;;;17.05;6.38;;;19.60;99.90;;;;;;5014541;28;20041;-73
2022/05/22 01:28:12;;;;;;;12.32;6.57;;;19.50;99.90;;;;;;5013946;28;20034;-73
2022/05/22 01:30:38;;;;;;;17.58;6.78;;;19.60;99.90;;;;;;5014407;28;20038;-73
2022/05/22 01:33:04;;;;;;;14.57;6.82;;;19.60;99.90;;;;;;5014897;28;20402;-73
2022/05/22 01:35:31;;;;;;;19.20;6.82;;;19.70;99.90;;;;;;5014837;28;20026;-73
2022/05/22 01:37:57;;;;;;;17.90;6.75;;;19.60;99.90;;;;;;5014402;28;20037;-73
2022/05/22 01:40:24;;;;;;;19.65;6.75;;;19.60;99.90;;;;;;5014697;28;20025;-73
2022/05/22 01:42:50;;;;;;;18.90;7.30;;;19.70;99.90;;;;;;5014230;28;20379;-73
2022/05/22 01:45:20;;;;;;;12.40;6.78;;;19.60;99.90;;;;;;5013992;28;20018;-73
2022/05/22 01:47:46;;;;;;;23.08;6.88;;;19.60;99.90;;;;;;5014351;28;20030;-73
2022/05/22 01:50:13;;;;;;;14.63;6.80;;;19.60;99.90;;;;;;5014254;28;20026;-73
2022/05/22 01:52:39;;;;;;;17.00;7.57;;;19.60;99.90;;;;;;5014433;28;20049;-73
2022/05/22 01:55:06;;;;;;;16.52;6.60;;;19.70;99.90;;;;;;5014383;28;20562;-73
2022/05/22 01:57:32;;;;;;;16.85;6.82;;;19.60;99.90;;;;;;5014094;28;20030;-73
2022/05/22 01:59:58;;;;;;;17.55;7.13;;;19.60;99.90;;;;;;5014096;28;20548;-73
2022/05/22 02:02:24;;;;;;;16.70;6.53;;;19.60;99.90;;;;;;5014285;28;20030;-73
2022/05/22 02:04:50;;;;;;;19.83;7.07;;;19.60;99.90;;;;;;5013994;28;20438;-73
2022/05/22 02:10:00;;;;;;;13.80;6.35;;;19.60;99.90;;;;;;5013967;28;20037;-73
2022/05/22 02:12:26;;;;;;;24.00;7.28;;;19.50;99.90;;;;;;5013915;28;20029;-73
2022/05/22 02:14:52;;;;;;;16.02;7.63;;;19.50;99.90;;;;;;5013442;28;20030;-73
2022/05/22 02:17:18;;;;;;;16.85;6.90;;;19.40;99.90;;;;;;5013474;28;20029;-73
2022/05/22 02:19:43;;;;;;;16.60;6.47;;;19.40;99.90;;;;;;5013896;28;20026;-73
2022/05/22 02:22:09;;;;;;;19.20;7.50;;;19.40;99.90;;;;;;5013376;28;20041;-73
2022/05/22 02:24:35;;;;;;;16.50;7.03;;;19.40;99.90;;;;;;5013573;28;20049;-73
2022/05/22 02:27:06;;;;;;;22.15;7.70;;;19.50;99.90;;;;;;5013809;28;20084;-73
2022/05/22 02:29:32;;;;;;;19.45;6.63;;;19.50;99.90;;;;;;5018195;28;20029;-73
2022/05/22 02:31:57;;;;;;;16.40;7.57;;;19.40;99.90;;;;;;5033330;28;20032;-73
2022/05/22 02:34:23;;;;;;;19.02;7.35;;;19.40;99.90;;;;;;5033659;28;20055;-73
2022/05/22 02:36:49;;;;;;;16.25;7.93;;;19.40;99.90;;;;;;5033257;28;20108;-73
2022/05/22 02:39:15;;;;;;;20.52;6.80;;;19.40;99.90;;;;;;5031988;28;20369;-73
2022/05/22 02:41:41;;;;;;;16.45;6.28;;;19.30;99.90;;;;;;5032091;28;20033;-73
2022/05/22 02:44:06;;;;;;;18.55;7.50;;;19.30;99.90;;;;;;5017544;28;20026;-73
2022/05/22 02:46:32;;;;;;;19.70;6.85;;;19.30;99.90;;;;;;5026985;28;20107;-73
2022/05/22 02:48:57;;;;;;;16.00;6.40;;;19.30;99.90;;;;;;5028664;28;20030;-73
2022/05/22 02:51:23;;;;;;;16.83;6.75;;;19.30;99.90;;;;;;5012222;28;20061;-73
2022/05/22 02:53:49;;;;;;;14.20;6.97;;;19.30;99.90;;;;;;5013299;28;20538;-73
2022/05/22 02:56:17;;;;;;;18.95;6.57;;;19.30;99.90;;;;;;5013202;28;20139;-73
2022/05/22 02:58:43;;;;;;;21.67;7.20;;;19.30;99.90;;;;;;5013195;28;20028;-73
2022/05/22 03:01:08;;;;;;;16.85;7.53;;;19.30;99.90;;;;;;5013123;28;20022;-73
2022/05/22 03:03:34;;;;;;;21.45;7.20;;;19.30;99.90;;;;;;5012915;28;20060;-73
2022/05/22 03:08:45;;;;;;;17.83;7.28;;;19.30;99.90;;;;;;5013055;28;20044;-73
2022/05/22 03:11:11;;;;;;;19.85;6.93;;;19.20;99.90;;;;;;5013210;28;20033;-73
2022/05/22 03:13:37;;;;;;;24.52;6.50;;;19.20;99.90;;;;;;5012975;28;20029;-73
2022/05/22 03:16:02;;;;;;;20.42;6.85;;;19.20;99.90;;;;;;5012971;28;20030;-73
2022/05/22 03:18:28;;;;;;;21.50;6.93;;;19.20;99.90;;;;;;5013210;28;20101;-73
2022/05/22 03:20:54;;;;;;;18.23;6.95;;;19.20;99.90;;;;;;5012759;28;20422;-73
2022/05/22 03:23:20;;;;;;;15.15;6.30;;;19.20;99.90;;;;;;5012412;28;20429;-73
2022/05/22 03:25:46;;;;;;;20.60;7.68;;;19.30;99.90;;;;;;5013165;28;20512;-73
2022/05/22 03:28:13;;;;;;;13.70;6.60;;;19.30;99.90;;;;;;5011135;28;20144;-73
2022/05/22 03:30:39;;;;;;;20.40;6.20;;;19.30;99.90;;;;;;5012843;28;20014;-73
2022/05/22 03:33:05;;;;;;;18.85;6.47;;;19.20;99.90;;;;;;5012662;28;20037;-73
2022/05/22 03:35:30;;;;;;;16.10;6.35;;;19.30;99.90;;;;;;5012836;28;20030;-73
2022/05/22 03:37:56;;;;;;;19.88;6.75;;;19.30;99.90;;;;;;5012928;28;20057;-73
2022/05/22 03:40:22;;;;;;;21.52;6.30;;;19.40;99.90;;;;;;5012661;28;20069;-73
2022/05/22 03:42:48;;;;;;;15.60;6.55;;;19.40;99.90;;;;;;5012339;28;20026;-73
2022/05/22 03:45:14;;;;;;;19.88;6.45;;;19.40;99.90;;;;;;5012714;28;20029;-73
2022/05/22 03:47:40;;;;;;;21.20;6.95;;;19.30;99.90;;;;;;5012748;28;20378;-73
2022/05/22 03:50:08;;;;;;;15.65;6.05;;;19.20;99.90;;;;;;5012312;28;20034;-73
2022/05/22 03:52:36;;;;;;;14.18;5.82;;;19.10;99.90;;;;;;5012736;28;20025;-73
2022/05/22 03:55:05;;;;;;;12.80;5.45;;;19.20;99.90;;;;;;5012356;28;20026;-73
2022/05/22 03:57:30;;;;;;;16.38;5.97;;;19.20;99.90;;;;;;5012769;28;20050;-73
2022/05/22 03:59:56;;;;;;;13.20;5.72;;;19.20;99.90;;;;;;5012473;28;20034;-73
2022/05/22 04:02:22;;;;;;;13.68;5.72;;;19.20;99.90;;;;;;5012382;28;20018;-73
2022/05/22 04:04:48;;;;;;;15.60;5.82;;;19.00;99.90;;;;;;5012621;28;20026;-73
2022/05/22 04:07:15;;;;;;;12.02;5.63;;;19.10;99.90;;;;;;5012173;28;20466;-73
2022/05/22 04:09:41;;;;;;;15.23;5.60;;;19.10;99.90;;;;;;5012336;28;20053;-73
2022/05/22 04:12:09;;;;;;;14.40;6.43;;;19.00;99.90;;;;;;5012439;28;20033;-73
2022/05/22 04:14:35;;;;;;;17.02;6.35;;;18.90;99.90;;;;;;5012316;28;20531;-73
2022/05/22 04:17:01;;;;;;;12.10;5.30;;;18.80;99.90;;;;;;5012539;28;20026;-73
2022/05/22 04:19:27;;;;;;;14.50;5.88;;;18.70;99.90;;;;;;5012325;28;20087;-73
2022/05/22 04:21:53;;;;;;;15.73;5.78;;;18.60;99.90;;;;;;5012494;28;20474;-73
2022/05/22 04:27:04;;;;;;;13.77;5.32;;;18.80;99.90;;;;;;5012078;28;20029;-73
2022/05/22 04:29:35;;;;;;;18.90;5.75;;;18.80;99.90;;;;;;5012229;28;20029;-73
2022/05/22 04:32:01;;;;;;;15.30;5.72;;;18.70;99.90;;;;;;5012087;28;20104;-73
2022/05/22 04:34:27;;;;;;;15.57;5.43;;;18.70;99.90;;;;;;5012235;28;20175;-73
2022/05/22 04:36:52;;;;;;;15.02;5.65;;;18.70;99.90;;;;;;5012205;28;20101;-73
2022/05/22 04:39:18;;;;;;;19.00;5.90;;;18.70;99.90;;;;;;5012026;28;20508;-73
2022/05/22 04:41:44;;;;;;;12.90;5.78;;;18.70;99.90;;;;;;5014360;28;20157;-73
2022/05/22 04:44:09;;;;;;;18.95;5.75;;;18.70;99.90;;;;;;5015547;28;20030;-73
2022/05/22 04:46:35;;;;;;;15.73;5.88;;;18.90;99.90;;;;;;5015853;28;20018;-73
2022/05/22 04:49:01;;;;;;;13.88;5.90;;;18.90;99.90;;;;;;5015857;28;20034;-73
2022/05/22 04:51:26;;;;;;;16.95;5.68;;;19.00;99.90;;;;;;5015338;28;20026;-73
2022/05/22 04:53:52;;;;;;;13.07;5.88;;;19.00;99.90;;;;;;5015482;28;20452;-73
2022/05/22 04:56:19;;;;;;;12.25;5.25;;;19.10;99.90;;;;;;5015266;28;20092;-73
2022/05/22 04:58:46;;;;;;;13.23;5.05;;;19.10;99.90;;;;;;5015853;28;20088;-73
2022/05/22 05:01:12;;;;;;;17.35;5.82;;;19.10;99.90;;;;;;5015364;28;20042;-73
2022/05/22 05:03:38;;;;;;;18.10;6.00;;;19.10;99.90;;;;;;5015318;28;20037;-73
2022/05/22 05:06:04;;;;;;;15.23;5.88;;;19.10;99.90;;;;;;5015219;28;20026;-73
2022/05/22 05:08:30;;;;;;;16.67;5.65;;;19.10;99.90;;;;;;5014999;28;20022;-73
2022/05/22 05:10:57;;;;;;;12.98;6.07;;;19.00;99.90;;;;;;5015237;28;20454;-73
2022/05/22 05:13:24;;;;;;;11.93;6.18;;;19.10;99.90;;;;;;5015195;28;20385;-73
2022/05/22 05:16:06;;;;;;;22.52;6.40;;;19.00;99.90;;;;;;5015504;28;20084;-73
2022/05/22 05:18:32;;;;;;;;;;;19.00;99.90;;;;;;5015448;28;20087;-73
2022/05/22 05:21:06;;;;;;;16.38;6.40;;;18.90;99.90;;;;;;5014925;28;19910;-73
2022/05/22 05:23:32;;;;;;;14.82;6.40;;;18.90;99.90;;;;;;5014268;28;20046;-73
2022/05/22 05:25:58;;;;;;;13.68;6.18;;;19.00;99.90;;;;;;5019208;28;20404;-73
2022/05/22 05:28:25;;;;;;;18.92;6.63;;;19.00;99.90;;;;;;5034306;28;20029;-73
2022/05/22 05:30:50;;;;;;;17.67;7.15;;;19.10;99.90;;;;;;5022116;28;20077;-73
2022/05/22 05:33:16;;;;;;;17.83;7.10;;;19.00;99.90;;;;;;5014563;28;20520;-73
2022/05/22 05:35:43;;;;;;;19.80;6.55;;;19.10;99.90;;;;;;5014725;28;20482;-73
2022/05/22 05:38:09;;;;;;;19.55;6.85;;;19.10;99.90;;;;;;5012960;28;20026;-73
2022/05/22 05:40:35;;;;;;;19.40;7.03;;;19.20;99.90;;;;;;5014987;28;20543;-73
2022/05/22 05:43:02;;;;;;;15.30;6.45;;;19.30;99.90;;;;;;5014592;28;20026;-73
2022/05/22 05:45:27;;;;;;;13.40;6.55;;;19.30;99.90;;;;;;5014287;28;20026;-73
2022/05/22 05:47:53;;;;;;;20.35;7.50;;;19.30;99.90;;;;;;5014521;28;20525;-73
2022/05/22 05:50:21;;;;;;;17.33;6.88;;;19.30;99.90;;;;;;5014083;28;20030;-73
2022/05/22 05:52:49;;;;;;;16.48;7.00;;;19.40;99.90;;;;;;5013549;28;20091;-73
2022/05/22 05:55:15;;;;;;;19.17;6.50;;;19.40;99.90;;;;;;5014453;28;20080;-73
2022/05/22 05:57:41;;;;;;;18.92;6.65;;;19.40;99.90;;;;;;5014410;28;20029;-73
2022/05/22 06:00:09;;;;;;;18.48;7.25;;;19.50;99.90;;;;;;5014290;28;20429;-73
2022/05/22 06:02:35;;;;;;;17.42;6.43;;;19.60;99.90;;;;;;5014066;28;20029;-73
2022/05/22 06:05:01;;;;;;;16.40;6.65;;;19.80;99.90;;;;;;5014065;28;20022;-73
2022/05/22 06:07:27;;;;;;;18.60;5.68;;;19.90;99.90;;;;;;5014189;28;20046;-73
2022/05/22 06:09:53;;;;;;;12.23;5.43;;;19.90;99.90;;;;;;5014298;28;20022;-73
2022/05/22 06:12:19;;;;;;;16.63;5.80;;;20.00;99.90;;;;;;5013958;28;20025;-73
2022/05/22 06:14:46;;;;;;;11.55;4.88;;;20.00;99.90;;;;;;5014153;28;20026;-73
2022/05/22 06:17:13;;;;;;;13.63;5.47;;;20.10;99.90;;;;;;5014056;28;20029;-73
2022/05/22 06:19:57;;;;;;;12.05;4.70;;;20.10;99.90;;;;;;5013333;28;20072;-74
2022/05/22 06:22:25;;;;;;;12.57;4.63;;;20.10;99.90;;;;;;5013561;28;20022;-73
2022/05/22 06:24:52;;;;;;;9.38;4.10;;;20.20;99.90;;;;;;5020279;28;20074;-73
2022/05/22 06:27:17;;;;;;;12.60;4.90;;;20.20;99.90;;;;;;5033251;28;20029;-73
2022/05/22 06:29:43;;;;;;;14.82;3.97;;;20.30;99.90;;;;;;5026188;28;20490;-73
2022/05/22 06:32:15;;;;;;;11.35;3.83;;;20.30;99.90;;;;;;5013552;28;20084;-73
2022/05/22 06:34:41;;;;;;;12.50;3.80;;;20.40;99.90;;;;;;5013353;28;20036;-73
2022/05/22 06:37:10;;;;;;;8.43;3.78;;;20.50;99.90;;;;;;5013138;28;20061;-73
2022/05/22 06:39:50;;;;;;;10.95;3.90;;;20.60;99.90;;;;;;5013446;28;20470;-73
2022/05/22 06:42:22;;;;;;;10.73;4.03;;;20.60;99.90;;;;;;5013612;28;20037;-73
2022/05/22 06:44:57;;;;;;;13.32;4.90;;;20.70;99.90;;;;;;5013689;28;20042;-73
2022/05/22 06:47:24;;;;;;;9.40;3.95;;;20.80;99.90;;;;;;5019836;28;20488;-73
2022/05/22 06:49:51;;;;;;;9.00;3.35;;;21.00;99.90;;;;;;5005423;28;20026;-73
2022/05/22 06:52:17;;;;;;;12.57;4.00;;;21.00;99.90;;;;;;4992538;28;20057;-73
2022/05/22 06:54:42;;;;;;;11.48;3.65;;;21.10;99.90;;;;;;4993396;28;20025;-73
2022/05/22 06:57:09;;;;;;;13.70;4.25;;;21.20;99.90;;;;;;4993435;28;20026;-74
2022/05/22 06:59:34;;;;;;;10.95;3.60;;;21.30;99.90;;;;;;4993380;28;20030;-74
2022/05/22 07:02:00;;;;;;;9.55;4.10;;;21.30;99.90;;;;;;4993436;28;20088;-75
2022/05/22 07:04:27;;;;;;;11.95;4.80;;;21.40;99.90;;;;;;4994052;28;20022;-74
2022/05/22 07:06:53;;;;;;;9.95;3.78;;;21.50;99.90;;;;;;4996412;28;20061;-72
2022/05/22 07:09:18;;;;;;;11.18;3.60;;;21.70;99.90;;;;;;4995399;28;20053;-72
2022/05/22 07:11:45;;;;;;;10.75;4.40;;;21.80;99.90;;;;;;5010618;28;20528;-72
2022/05/22 07:14:15;;;;;;;8.32;3.05;;;21.90;99.90;;;;;;5015971;28;20346;-72
2022/05/22 07:16:42;;;;;;;8.43;3.50;;;21.90;99.90;;;;;;5012262;28;20061;-72
2022/05/22 07:19:10;;;;;;;10.18;3.42;;;21.90;99.90;;;;;;5012417;28;20545;-72
2022/05/22 07:21:36;;;;;;;10.18;3.58;;;21.80;99.90;;;;;;5014311;28;20100;-74
2022/05/22 07:24:02;;;;;;;12.77;3.33;;;21.80;99.90;;;;;;5016649;28;20545;-72
2022/05/22 07:26:28;;;;;;;13.35;3.70;;;21.80;99.90;;;;;;5021832;28;20827;-74
2022/05/22 07:28:54;;;;;;;10.35;3.25;;;21.90;99.90;;;;;;5017839;28;20100;-74
2022/05/22 07:31:22;;;;;;;8.88;3.22;;;22.00;99.90;;;;;;5018290;28;20101;-73
2022/05/22 07:33:48;;;;;;;8.93;3.35;;;22.30;99.90;;;;;;5017263;28;20694;-74
2022/05/22 07:36:14;;;;;;;6.93;3.10;;;22.40;99.90;;;;;;5014084;28;20077;-74
2022/05/22 07:38:40;;;;;;;7.47;3.20;;;22.60;99.90;;;;;;5011939;28;20441;-74
2022/05/22 07:41:05;;;;;;;7.85;3.03;;;22.70;99.40;;;;;;5012861;28;20092;-74
2022/05/22 07:43:31;;;;;;;8.40;3.20;;;22.90;99.30;;;;;;5013821;28;20036;-75
2022/05/22 07:45:57;;;;;;;14.25;3.63;;;23.00;99.70;;;;;;5014437;28;20025;-82
2022/05/22 07:48:23;;;;;;;13.35;3.45;;;23.10;98.20;;;;;;5014586;28;20056;-74
2022/05/22 07:50:57;;;;;;;10.32;2.95;;;23.00;97.10;;;;;;5016142;28;20033;-73
2022/05/22 07:53:23;;;;;;;10.93;2.90;;;23.00;97.80;;;;;;5027366;28;20508;-74
2022/05/22 07:55:49;;;;;;;6.60;2.88;;;23.10;97.30;;;;;;5012445;28;20448;-73
2022/05/22 07:58:15;;;;;;;10.40;2.95;;;23.10;97.50;;;;;;5011699;28;20034;-73
2022/05/22 08:00:41;;;;;;;6.00;2.65;;;23.10;96.80;;;;;;5013654;28;20729;-74
2022/05/22 08:03:13;;;;;;;13.52;3.10;;;23.00;96.60;;;;;;5014390;28;20105;-73
2022/05/22 08:05:39;;;;;;;9.02;3.58;;;23.00;96.80;;;;;;5011562;28;20426;-74
2022/05/22 08:08:05;;;;;;;6.65;2.72;;;23.20;97.30;;;;;;5011862;28;20018;-73
2022/05/22 08:10:31;;;;;;;10.10;3.60;;;23.50;95.50;;;;;;5011871;28;20072;-73
2022/05/22 08:12:57;;;;;;;7.70;3.10;;;23.50;95.50;;;;;;5011664;28;20104;-73
2022/05/22 08:15:31;;;;;;;11.15;3.13;;;23.50;95.10;;;;;;5012410;28;20026;-73
2022/05/22 08:17:57;;;;;;;7.90;2.90;;;23.50;94.80;;;;;;5015100;28;20030;-73
2022/05/22 08:20:25;;;;;;;10.63;3.05;;;23.70;94.50;;;;;;5015503;28;20053;-74
2022/05/22 08:22:59;;;;;;;7.10;3.03;;;23.90;93.30;;;;;;5021078;28;20501;-72
2022/05/22 08:25:27;;;;;;;7.72;2.60;;;24.10;92.00;;;;;;5028528;28;20018;-74
2022/05/22 08:27:54;;;;;;;7.35;2.47;;;24.30;91.90;;;;;;5020310;28;20022;-72
2022/05/22 08:30:21;;;;;;;13.57;2.97;;;24.50;91.50;;;;;;5015521;28;20413;-74
2022/05/22 08:32:48;;;;;;;14.43;2.88;;;24.80;90.70;;;;;;5015956;28;20026;-74
2022/05/22 08:35:21;;;;;;;10.02;2.60;;;24.90;90.50;;;;;;5016094;28;20029;-73
2022/05/22 08:37:47;;;;;;;8.40;2.80;;;25.20;90.20;;;;;;5035739;28;20475;-73
2022/05/22 08:40:15;;;;;;;11.30;2.83;;;25.10;88.90;;;;;;5025985;28;20037;-74
2022/05/22 08:42:48;;;;;;;8.30;3.13;;;25.60;88.90;;;;;;5014609;28;20393;-77
2022/05/22 08:45:18;;;;;;;12.50;3.15;;;25.60;88.70;;;;;;5015666;28;20022;-79
2022/05/22 08:47:49;;;;;;;10.80;3.13;;;25.70;89.00;;;;;;5015924;28;20165;-73
2022/05/22 08:50:15;;;;;;;9.98;3.33;;;26.00;89.20;;;;;;5020375;28;20387;-73
2022/05/22 08:52:47;;;;;;;5.30;2.80;;;25.90;89.60;;;;;;5031357;28;20039;-74
2022/05/22 08:55:20;;;;;;;8.48;3.17;;;26.50;89.10;;;;;;5035107;28;20025;-73
2022/05/22 09:00:47;;;;;;;6.57;2.45;;;26.70;87.20;;;;;;5035128;28;20040;-73
2022/05/22 09:03:28;;;;;;;8.70;2.60;;;26.90;85.20;;;;;;5033209;28;20033;-73
2022/05/22 09:05:58;;;;;;;8.85;2.95;;;26.50;83.90;;;;;;5015284;28;20028;-74
2022/05/22 09:08:35;;;;;;;9.75;2.55;;;26.50;84.20;;;;;;5015416;28;20382;-74
2022/05/22 09:11:13;;;;;;;10.02;2.88;;;26.90;84.30;;;;;;5014376;28;20021;-74
2022/05/22 09:13:54;;;;;;;14.05;3.33;;;27.10;82.70;;;;;;5014564;28;20033;-73
2022/05/22 09:16:35;;;;;;;7.22;3.55;;;27.00;82.20;;;;;;5014443;28;20382;-75
2022/05/22 09:19:16;;;;;;;;;;;27.00;82.80;;;;;;5018881;28;20092;-74
2022/05/22 09:22:00;;;;;;;15.00;3.30;;;27.20;81.60;;;;;;5020046;28;19909;-74
2022/05/22 09:24:51;;;;;;;6.15;2.80;;;26.70;83.30;;;;;;5015985;28;20076;-74
2022/05/22 09:27:28;;;;;;;8.25;3.03;;;27.10;82.50;;;;;;5016473;28;20110;-73
2022/05/22 09:29:59;;;;;;;11.27;2.70;;;26.90;81.70;;;;;;5029238;28;20456;-73
2022/05/22 09:32:45;;;;;;;;;;;27.10;81.90;;;;;;5012118;28;20104;-74
2022/05/22 09:35:34;;;;;;;8.05;2.75;;;27.40;80.80;;;;;;4992710;28;20004;-73
2022/05/22 09:38:11;;;;;;;7.00;2.13;;;27.90;81.60;;;;;;4987378;28;20100;-74
2022/05/22 09:40:52;;;;;;;16.05;3.15;;;28.20;79.60;;;;;;4992521;28;20039;-74
2022/05/22 09:43:48;;;;;;;11.97;3.07;;;28.40;77.20;;;;;;4991777;28;20041;-73
2022/05/22 09:46:48;;;;;;;7.28;2.47;;;28.00;76.00;;;;;;5002733;28;20053;-74
2022/05/22 09:49:32;;;;;;;9.05;2.92;;;28.00;74.10;;;;;;5005683;28;20482;-73
2022/05/22 09:52:14;;;;;;;6.95;3.05;;;28.30;74.20;;;;;;4998861;28;20113;-74
2022/05/22 09:55:20;;;;;;;7.82;3.03;;;28.30;73.00;;;;;;5012089;28;20033;-74
2022/05/22 09:58:14;;;;;;;8.25;2.83;;;28.20;73.30;;;;;;5000373;28;20030;-74
2022/05/22 10:00:44;;;;;;;7.60;2.85;;;28.30;72.60;;;;;;4977604;28;20133;-73
2022/05/22 10:03:18;;;;;;;5.93;2.30;;;28.50;71.70;;;;;;4995561;28;20046;-73
2022/05/22 10:05:52;;;;;;;8.25;2.13;;;28.90;72.30;;;;;;4991277;28;20421;-73
2022/05/22 10:08:48;;;;;;;8.23;2.95;;;29.20;70.20;;;;;;5002471;28;20036;-74
2022/05/22 10:11:34;;;;;;;9.57;2.53;;;29.50;71.80;;;;;;4983095;28;20045;-74
2022/05/22 10:14:23;;;;;;;136.13;84.80;;;29.20;68.50;;;;;;5016800;28;20556;-75
2022/05/22 10:17:18;;;;;;;274.05;150.52;;;28.50;69.50;;;;;;5019152;28;20025;-74
2022/05/22 10:20:08;;;;;;;20.10;10.70;;;29.20;70.10;;;;;;5019357;28;20061;-74
2022/05/22 10:22:52;;;;;;;26.08;9.90;;;28.70;67.80;;;;;;5014112;28;20052;-75
2022/05/22 10:25:43;;;;;;;21.33;11.18;;;28.80;67.40;;;;;;5014798;28;20029;-74
2022/05/22 10:28:12;;;;;;;17.47;9.00;;;29.10;66.40;;;;;;5011735;28;20022;-74
2022/05/22 10:30:42;;;;;;;10.05;4.22;;;29.20;64.60;;;;;;5016039;28;20040;-73
2022/05/22 10:33:27;;;;;;;8.77;3.08;;;29.60;65.00;;;;;;5023049;28;20017;-74
2022/05/22 10:35:52;;;;;;;7.93;3.20;;;29.40;65.30;;;;;;5014127;28;20037;-74
2022/05/22 10:38:24;;;;;;;11.15;3.20;;;29.80;65.40;;;;;;5012461;28;20018;-74
2022/05/22 10:43:41;;;;;;;8.38;2.70;;;29.00;67.00;;;;;;5012549;28;20516;-73
2022/05/22 10:46:07;;;;;;;7.63;2.78;;;28.90;67.00;;;;;;5012489;28;20029;-74
2022/05/22 10:48:35;;;;;;;6.20;3.13;;;29.10;66.20;;;;;;5016438;28;20024;-74
2022/05/22 10:51:11;;;;;;;8.60;2.75;;;29.50;64.40;;;;;;5014650;28;20026;-75
2022/05/22 10:53:49;;;;;;;9.50;2.60;;;29.70;65.50;;;;;;5012179;28;20068;-74
2022/05/22 10:56:26;;;;;;;9.30;2.60;;;29.40;62.40;;;;;;5022440;28;20107;-75
2022/05/22 10:58:58;;;;;;;8.13;2.65;;;29.70;63.60;;;;;;5027788;28;20026;-76
2022/05/22 11:01:39;;;;;;;6.35;2.88;;;28.90;63.70;;;;;;5012362;28;20383;-76
2022/05/22 11:04:14;;;;;;;9.23;2.92;;;28.40;65.00;;;;;;5012519;28;20077;-75
2022/05/22 11:06:52;;;;;;;9.68;2.72;;;28.40;65.80;;;;;;5017291;28;20040;-74
2022/05/22 11:09:30;;;;;;;8.07;2.78;;;27.90;64.30;;;;;;5012302;28;20022;-76
2022/05/22 11:12:10;;;;;;;13.15;3.50;;;27.70;65.10;;;;;;5017737;28;20021;-76
2022/05/22 11:14:37;;;;;;;11.90;2.75;;;28.00;65.30;;;;;;5012005;28;20026;-75
2022/05/22 11:17:20;;;;;;;9.25;3.17;;;28.30;65.40;;;;;;5011609;28;20497;-76
2022/05/22 11:19:54;;;;;;;6.35;2.53;;;28.20;64.90;;;;;;5011321;28;20014;-75
2022/05/22 11:22:37;;;;;;;7.45;2.70;;;27.90;64.90;;;;;;5022100;28;20036;-74
2022/05/22 11:25:11;;;;;;;14.02;2.97;;;27.50;65.80;;;;;;5017486;28;20033;-75
2022/05/22 11:28:14;;;;;;;5.60;2.35;;;27.50;64.20;;;;;;5020565;28;20030;-76
2022/05/22 11:31:00;;;;;;;9.30;3.05;;;28.30;64.30;;;;;;5018763;28;20032;-77
2022/05/22 11:33:55;;;;;;;7.70;2.53;;;29.10;64.30;;;;;;5025151;28;20025;-74
2022/05/22 11:36:26;;;;;;;8.15;2.50;;;29.40;61.60;;;;;;4989786;28;20174;-74
2022/05/22 11:39:22;;;;;;;10.27;2.53;;;29.90;63.10;;;;;;4990448;28;20086;-75
2022/05/22 11:42:06;;;;;;;5.57;2.20;;;29.70;60.00;;;;;;4989670;28;20801;-75
2022/05/22 11:44:47;;;;;;;6.95;2.53;;;29.80;60.70;;;;;;4991601;28;20037;-75
2022/05/22 11:47:15;;;;;;;7.20;3.00;;;29.90;59.60;;;;;;4974198;28;20516;-74
2022/05/22 11:49:59;;;;;;;5.45;2.33;;;29.70;60.50;;;;;;4989575;28;20471;-74
2022/05/22 11:55:29;;;;;;;11.38;2.85;;;30.10;58.60;;;;;;5129521;27;20454;-74
2022/05/22 11:58:11;;;;;;;6.55;2.53;;;30.00;60.30;;;;;;5129607;28;20024;-75
2022/05/22 12:01:00;;;;;;;10.80;2.83;;;30.30;59.30;;;;;;5129360;28;20011;-75
2022/05/22 12:03:46;;;;;;;10.52;2.60;;;30.40;59.60;;;;;;5111398;28;20521;-75
2022/05/22 12:06:34;;;;;;;7.43;2.83;;;31.00;59.10;;;;;;5126501;27;20019;-75
2022/05/22 12:09:14;;;;;;;7.43;2.42;;;30.80;58.10;;;;;;5129469;28;20081;-75
2022/05/22 12:12:01;;;;;;;7.15;2.20;;;30.40;58.60;;;;;;5129029;28;20053;-75
2022/05/22 12:14:39;;;;;;;5.28;2.25;;;30.30;59.90;;;;;;5129819;27;20023;-75
2022/05/22 12:17:31;;;;;;;5.63;2.40;;;30.10;59.00;;;;;;5133107;27;20017;-74
2022/05/22 12:20:13;;;;;;;10.10;2.17;;;30.50;59.20;;;;;;5130525;27;20549;-73
2022/05/22 12:23:07;;;;;;;11.20;3.47;;;30.30;58.90;;;;;;5131179;27;20026;-76
2022/05/22 12:25:36;;;;;;;9.68;2.63;;;30.10;59.80;;;;;;5110059;28;20040;-74
2022/05/22 12:28:17;;;;;;;9.00;2.78;;;30.20;59.80;;;;;;5104963;28;20016;-73
2022/05/22 12:30:44;;;;;;;13.43;2.80;;;30.30;60.60;;;;;;5111680;28;20032;-74
2022/05/22 12:33:12;;;;;;;7.75;2.80;;;30.60;58.90;;;;;;5104264;28;20042;-74
2022/05/22 12:35:41;;;;;;;11.32;3.00;;;30.20;58.80;;;;;;5104261;28;20047;-74
2022/05/22 12:38:10;;;;;;;5.32;2.78;;;30.00;58.30;;;;;;5104723;28;20013;-74
2022/05/22 12:40:44;;;;;;;9.88;2.78;;;29.60;58.30;;;;;;5101912;28;20028;-73
2022/05/22 12:43:14;;;;;;;14.25;3.60;;;29.90;59.30;;;;;;5097792;28;20059;-73
2022/05/22 12:45:40;;;;;;;9.27;2.85;;;30.10;58.40;;;;;;5107831;28;20031;-73
2022/05/22 12:48:35;;;;;;;13.70;2.85;;;30.10;58.90;;;;;;5109647;28;20066;-74
2022/05/22 12:51:10;;;;;;;9.00;2.30;;;30.30;59.50;;;;;;5108114;28;20031;-73
2022/05/22 12:53:39;;;;;;;15.70;2.80;;;30.30;59.10;;;;;;5110200;28;20050;-74
2022/05/22 12:56:18;;;;;;;9.15;2.55;;;30.20;59.90;;;;;;5107491;28;20027;-73
2022/05/22 12:58:52;;;;;;;8.25;2.42;;;30.80;59.40;;;;;;5106908;28;20016;-74
2022/05/22 13:01:28;;;;;;;6.78;2.22;;;30.70;59.70;;;;;;5115915;28;20372;-73
2022/05/22 13:04:01;;;;;;;14.63;2.67;;;30.90;59.70;;;;;;5103019;28;20025;-74
2022/05/22 13:06:49;;;;;;;12.48;2.83;;;31.10;58.60;;;;;;5091696;28;20036;-74
2022/05/22 13:09:45;;;;;;;9.98;3.42;;;30.40;58.60;;;;;;5084807;28;20028;-73
2022/05/22 13:12:15;;;;;;;11.45;2.88;;;30.30;59.60;;;;;;5089209;28;20055;-74
2022/05/22 13:14:54;;;;;;;15.85;3.15;;;30.20;59.80;;;;;;5091764;28;20070;-74
2022/05/22 13:17:39;;;;;;;5.18;2.58;;;30.00;59.90;;;;;;5089738;28;20027;-74
2022/05/22 13:20:22;;;;;;;7.82;2.85;;;29.70;60.10;;;;;;5092832;28;20012;-74
2022/05/22 13:22:48;;;;;;;8.25;2.95;;;29.70;63.00;;;;;;5091180;28;20035;-74